sensor_id;sensor_type;location;lat;lon;timestamp;pressure;altitude;pressure_sealevel;temperature;humidity
52249;BME280;38541;48.130;8.378;2023-08-21T00:00:29;93472.44;;;21.44;75.83
52249;BME280;38541;48.130;8.378;2023-08-21T00:02:56;93470.84;;;21.43;76.15
52249;BME280;38541;48.130;8.378;2023-08-21T00:05:22;93469.28;;;21.42;76.00
52249;BME280;38541;48.130;8.378;2023-08-21T00:07:49;93471.63;;;21.44;75.53
52249;BME280;38541;48.130;8.378;2023-08-21T00:10:17;93475.22;;;21.39;74.35
52249;BME280;38541;48.130;8.378;2023-08-21T00:12:44;93470.50;;;21.36;74.42
52249;BME280;38541;48.130;8.378;2023-08-21T00:15:10;93465.03;;;21.32;74.34
52249;BME280;38541;48.130;8.378;2023-08-21T00:17:36;93463.09;;;21.24;75.50
52249;BME280;38541;48.130;8.378;2023-08-21T00:20:04;93455.56;;;21.26;76.39
52249;BME280;38541;48.130;8.378;2023-08-21T00:22:30;93462.47;;;21.27;76.44
52249;BME280;38541;48.130;8.378;2023-08-21T00:24:57;93461.38;;;21.28;76.14
52249;BME280;38541;48.130;8.378;2023-08-21T00:27:23;93457.31;;;21.31;76.08
52249;BME280;38541;48.130;8.378;2023-08-21T00:29:50;93458.69;;;21.28;75.93
52249;BME280;38541;48.130;8.378;2023-08-21T00:32:16;93456.66;;;21.25;75.23
52249;BME280;38541;48.130;8.378;2023-08-21T00:34:43;93452.88;;;21.17;75.09
52249;BME280;38541;48.130;8.378;2023-08-21T00:37:09;93452.88;;;21.17;75.38
52249;BME280;38541;48.130;8.378;2023-08-21T00:39:37;93448.94;;;21.15;75.03
52249;BME280;38541;48.130;8.378;2023-08-21T00:42:04;93442.63;;;21.10;74.97
52249;BME280;38541;48.130;8.378;2023-08-21T00:44:31;93450.97;;;21.09;74.54
52249;BME280;38541;48.130;8.378;2023-08-21T00:46:57;93449.69;;;21.06;74.43
52249;BME280;38541;48.130;8.378;2023-08-21T00:49:25;93451.41;;;21.02;74.82
52249;BME280;38541;48.130;8.378;2023-08-21T00:51:52;93452.03;;;20.99;74.94
52249;BME280;38541;48.130;8.378;2023-08-21T00:54:19;93443.56;;;20.97;74.59
52249;BME280;38541;48.130;8.378;2023-08-21T00:56:46;93444.16;;;20.94;75.83
52249;BME280;38541;48.130;8.378;2023-08-21T00:59:16;93434.56;;;20.93;76.75
52249;BME280;38541;48.130;8.378;2023-08-21T01:01:43;93436.28;;;20.89;77.70
52249;BME280;38541;48.130;8.378;2023-08-21T01:04:10;93442.91;;;20.91;77.26
52249;BME280;38541;48.130;8.378;2023-08-21T01:06:37;93445.25;;;20.93;76.55
52249;BME280;38541;48.130;8.378;2023-08-21T01:09:15;93435.34;;;20.85;76.27
52249;BME280;38541;48.130;8.378;2023-08-21T01:11:56;93438.63;;;20.81;76.58
52249;BME280;38541;48.130;8.378;2023-08-21T01:14:41;93438.13;;;20.79;76.41
52249;BME280;38541;48.130;8.378;2023-08-21T01:17:10;93441.09;;;20.78;76.41
52249;BME280;38541;48.130;8.378;2023-08-21T01:19:43;93444.69;;;20.73;76.13
52249;BME280;38541;48.130;8.378;2023-08-21T01:22:11;93450.63;;;20.70;76.01
52249;BME280;38541;48.130;8.378;2023-08-21T01:24:38;93447.03;;;20.66;76.10
52249;BME280;38541;48.130;8.378;2023-08-21T01:27:04;93457.69;;;20.66;76.21
52249;BME280;38541;48.130;8.378;2023-08-21T01:29:32;93457.22;;;20.64;76.34
52249;BME280;38541;48.130;8.378;2023-08-21T01:34:46;93459.03;;;20.55;76.31
52249;BME280;38541;48.130;8.378;2023-08-21T01:37:13;93465.00;;;20.51;76.35
52249;BME280;38541;48.130;8.378;2023-08-21T01:39:40;93461.84;;;20.49;76.41
52249;BME280;38541;48.130;8.378;2023-08-21T01:42:07;93465.00;;;20.51;76.89
52249;BME280;38541;48.130;8.378;2023-08-21T01:44:33;93457.47;;;20.53;77.50
52249;BME280;38541;48.130;8.378;2023-08-21T01:47:02;93457.63;;;20.48;76.80
52249;BME280;38541;48.130;8.378;2023-08-21T01:49:28;93452.91;;;20.45;77.09
52249;BME280;38541;48.130;8.378;2023-08-21T01:51:55;93454.00;;;20.44;77.00
52249;BME280;38541;48.130;8.378;2023-08-21T01:54:24;93452.91;;;20.45;76.43
52249;BME280;38541;48.130;8.378;2023-08-21T01:56:50;93452.91;;;20.45;76.67
52249;BME280;38541;48.130;8.378;2023-08-21T01:59:17;93454.41;;;20.37;76.76
52249;BME280;38541;48.130;8.378;2023-08-21T02:01:44;93448.91;;;20.34;77.49
52249;BME280;38541;48.130;8.378;2023-08-21T02:04:11;93446.56;;;20.32;76.54
52249;BME280;38541;48.130;8.378;2023-08-21T02:06:37;93447.94;;;20.30;75.97
52249;BME280;38541;48.130;8.378;2023-08-21T02:09:06;93451.50;;;20.25;75.90
52249;BME280;38541;48.130;8.378;2023-08-21T02:11:34;93445.41;;;20.24;75.92
52249;BME280;38541;48.130;8.378;2023-08-21T02:14:00;93449.94;;;20.24;76.52
52249;BME280;38541;48.130;8.378;2023-08-21T02:16:27;93446.78;;;20.22;76.37
52249;BME280;38541;48.130;8.378;2023-08-21T02:18:53;93443.97;;;20.18;76.73
52249;BME280;38541;48.130;8.378;2023-08-21T02:21:20;93445.84;;;20.18;76.91
52249;BME280;38541;48.130;8.378;2023-08-21T02:23:47;93438.13;;;20.16;77.42
52249;BME280;38541;48.130;8.378;2023-08-21T02:26:13;93437.81;;;20.18;77.23
52249;BME280;38541;48.130;8.378;2023-08-21T02:28:40;93437.34;;;20.16;76.61
52249;BME280;38541;48.130;8.378;2023-08-21T02:31:09;93433.09;;;20.15;76.60
52249;BME280;38541;48.130;8.378;2023-08-21T02:33:36;93438.56;;;20.09;76.64
52249;BME280;38541;48.130;8.378;2023-08-21T02:36:03;93436.19;;;20.08;76.61
52249;BME280;38541;48.130;8.378;2023-08-21T02:38:30;93431.00;;;20.03;76.10
52249;BME280;38541;48.130;8.378;2023-08-21T02:40:56;93431.09;;;19.98;76.16
52249;BME280;38541;48.130;8.378;2023-08-21T02:43:23;93437.84;;;19.95;76.28
52249;BME280;38541;48.130;8.378;2023-08-21T02:45:49;93432.81;;;19.93;75.85
52249;BME280;38541;48.130;8.378;2023-08-21T02:48:16;93431.72;;;19.94;76.29
52249;BME280;38541;48.130;8.378;2023-08-21T02:50:42;93427.00;;;19.91;76.90
52249;BME280;38541;48.130;8.378;2023-08-21T02:53:09;93426.78;;;19.88;76.43
52249;BME280;38541;48.130;8.378;2023-08-21T02:55:36;93438.38;;;19.83;76.48
52249;BME280;38541;48.130;8.378;2023-08-21T02:58:02;93423.13;;;19.84;76.93
52249;BME280;38541;48.130;8.378;2023-08-21T03:00:29;93427.22;;;19.81;77.28
52249;BME280;38541;48.130;8.378;2023-08-21T03:02:55;93429.97;;;19.76;77.66
52249;BME280;38541;48.130;8.378;2023-08-21T03:05:22;93429.22;;;19.75;78.22
52249;BME280;38541;48.130;8.378;2023-08-21T03:07:49;93429.69;;;19.77;78.14
52249;BME280;38541;48.130;8.378;2023-08-21T03:10:15;93427.16;;;19.72;77.10
52249;BME280;38541;48.130;8.378;2023-08-21T03:12:42;93424.28;;;19.68;77.35
52249;BME280;38541;48.130;8.378;2023-08-21T03:15:08;93429.63;;;19.68;77.19
52249;BME280;38541;48.130;8.378;2023-08-21T03:17:35;93430.22;;;19.65;77.00
52249;BME280;38541;48.130;8.378;2023-08-21T03:20:02;93438.31;;;19.60;76.86
52249;BME280;38541;48.130;8.378;2023-08-21T03:22:31;93439.91;;;19.61;77.38
52249;BME280;38541;48.130;8.378;2023-08-21T03:25:01;93434.56;;;19.61;77.69
52249;BME280;38541;48.130;8.378;2023-08-21T03:27:28;93438.31;;;19.60;77.50
52249;BME280;38541;48.130;8.378;2023-08-21T03:29:55;93429.84;;;19.58;77.10
52249;BME280;38541;48.130;8.378;2023-08-21T03:32:22;93430.94;;;19.57;77.73
52249;BME280;38541;48.130;8.378;2023-08-21T03:34:49;93437.19;;;19.52;78.04
52249;BME280;38541;48.130;8.378;2023-08-21T03:37:16;93433.25;;;19.50;78.21
52249;BME280;38541;48.130;8.378;2023-08-21T03:39:43;93438.09;;;19.48;77.99
52249;BME280;38541;48.130;8.378;2023-08-21T03:42:10;93433.03;;;19.46;78.74
52249;BME280;38541;48.130;8.378;2023-08-21T03:44:38;93439.78;;;19.44;78.56
52249;BME280;38541;48.130;8.378;2023-08-21T03:47:05;93439.78;;;19.44;78.39
52249;BME280;38541;48.130;8.378;2023-08-21T03:49:37;93434.94;;;19.46;78.29
52249;BME280;38541;48.130;8.378;2023-08-21T03:52:04;93434.44;;;19.44;78.48
52249;BME280;38541;48.130;8.378;2023-08-21T03:54:30;93436.03;;;19.45;78.16
52249;BME280;38541;48.130;8.378;2023-08-21T03:56:57;93442.44;;;19.44;77.68
52249;BME280;38541;48.130;8.378;2023-08-21T03:59:23;93441.94;;;19.42;nan
52249;BME280;38541;48.130;8.378;2023-08-21T04:01:53;93441.44;;;19.39;78.13
52249;BME280;38541;48.130;8.378;2023-08-21T04:04:20;93451.13;;;19.35;78.19
52249;BME280;38541;48.130;8.378;2023-08-21T04:06:47;93446.59;;;19.36;77.94
52249;BME280;38541;48.130;8.378;2023-08-21T04:09:13;93447.50;;;19.31;77.84
52249;BME280;38541;48.130;8.378;2023-08-21T04:11:40;93450.94;;;19.32;77.41
52249;BME280;38541;48.130;8.378;2023-08-21T04:14:07;93458.75;;;19.28;77.59
52249;BME280;38541;48.130;8.378;2023-08-21T04:16:33;93450.28;;;19.26;78.28
52249;BME280;38541;48.130;8.378;2023-08-21T04:19:00;93456.38;;;19.27;78.57
52249;BME280;38541;48.130;8.378;2023-08-21T04:21:26;93458.44;;;19.30;78.26
52249;BME280;38541;48.130;8.378;2023-08-21T04:23:53;93463.88;;;19.24;78.07
52249;BME280;38541;48.130;8.378;2023-08-21T04:26:19;93450.84;;;19.23;77.98
52249;BME280;38541;48.130;8.378;2023-08-21T04:28:46;93461.50;;;19.23;77.94
52249;BME280;38541;48.130;8.378;2023-08-21T04:31:13;93449.78;;;19.24;78.51
52249;BME280;38541;48.130;8.378;2023-08-21T04:33:41;93450.56;;;19.24;79.26
52249;BME280;38541;48.130;8.378;2023-08-21T04:36:14;93454.03;;;19.25;79.05
52249;BME280;38541;48.130;8.378;2023-08-21T04:38:41;93452.94;;;19.26;79.21
52249;BME280;38541;48.130;8.378;2023-08-21T04:41:08;93452.94;;;19.26;78.68
52249;BME280;38541;48.130;8.378;2023-08-21T04:43:37;93453.22;;;19.24;78.60
52249;BME280;38541;48.130;8.378;2023-08-21T04:46:06;93450.84;;;19.23;78.80
52249;BME280;38541;48.130;8.378;2023-08-21T04:48:35;93454.91;;;19.20;78.36
52249;BME280;38541;48.130;8.378;2023-08-21T04:51:02;93465.56;;;19.20;78.57
52249;BME280;38541;48.130;8.378;2023-08-21T04:53:28;93464.28;;;19.18;78.40
52249;BME280;38541;48.130;8.378;2023-08-21T04:56:00;93463.78;;;19.16;79.38
52249;BME280;38541;48.130;8.378;2023-08-21T04:58:28;93468.84;;;19.17;79.32
52249;BME280;38541;48.130;8.378;2023-08-21T05:00:55;93474.16;;;19.17;79.69
52249;BME280;38541;48.130;8.378;2023-08-21T05:03:22;93475.13;;;19.21;79.88
52249;BME280;38541;48.130;8.378;2023-08-21T05:05:53;93480.66;;;19.25;79.77
52249;BME280;38541;48.130;8.378;2023-08-21T05:08:22;93481.66;;;19.29;79.36
52249;BME280;38541;48.130;8.378;2023-08-21T05:11:02;93484.78;;;19.31;79.06
52249;BME280;38541;48.130;8.378;2023-08-21T05:13:32;93484.78;;;19.31;78.48
52249;BME280;38541;48.130;8.378;2023-08-21T05:15:59;93483.72;;;19.32;78.71
52249;BME280;38541;48.130;8.378;2023-08-21T05:18:30;93484.78;;;19.31;78.50
52249;BME280;38541;48.130;8.378;2023-08-21T05:20:56;93480.25;;;19.32;78.61
52249;BME280;38541;48.130;8.378;2023-08-21T05:23:23;93487.16;;;19.33;79.02
52249;BME280;38541;48.130;8.378;2023-08-21T05:25:53;93482.63;;;19.33;79.36
52249;BME280;38541;48.130;8.378;2023-08-21T05:28:19;93486.84;;;19.34;79.79
52249;BME280;38541;48.130;8.378;2023-08-21T05:30:47;93490.50;;;19.38;80.25
52249;BME280;38541;48.130;8.378;2023-08-21T05:33:18;93490.91;;;19.46;80.77
52249;BME280;38541;48.130;8.378;2023-08-21T05:35:47;93484.47;;;19.47;80.84
52249;BME280;38541;48.130;8.378;2023-08-21T05:38:13;93490.50;;;19.52;81.13
52249;BME280;38541;48.130;8.378;2023-08-21T05:40:41;93491.75;;;19.55;80.17
52249;BME280;38541;48.130;8.378;2023-08-21T05:43:09;93490.06;;;19.59;79.91
52249;BME280;38541;48.130;8.378;2023-08-21T05:45:38;93490.53;;;19.61;79.42
52249;BME280;38541;48.130;8.378;2023-08-21T05:48:04;93485.91;;;19.67;80.07
52249;BME280;38541;48.130;8.378;2023-08-21T05:50:31;93489.25;;;19.73;79.55
52249;BME280;38541;48.130;8.378;2023-08-21T05:52:58;93486.47;;;19.78;80.58
52249;BME280;38541;48.130;8.378;2023-08-21T05:55:25;93488.03;;;19.79;80.67
52249;BME280;38541;48.130;8.378;2023-08-21T05:57:51;93487.94;;;19.84;80.87
52249;BME280;38541;48.130;8.378;2023-08-21T06:00:19;93488.91;;;19.88;81.19
52249;BME280;38541;48.130;8.378;2023-08-21T06:02:45;93488.81;;;19.93;82.09
52249;BME280;38541;48.130;8.378;2023-08-21T06:05:34;93491.53;;;20.02;81.88
52249;BME280;38541;48.130;8.378;2023-08-21T06:08:01;93490.31;;;20.08;82.32
52249;BME280;38541;48.130;8.378;2023-08-21T06:10:31;93495.25;;;20.15;81.86
52249;BME280;38541;48.130;8.378;2023-08-21T06:12:58;93494.03;;;20.21;81.33
52249;BME280;38541;48.130;8.378;2023-08-21T06:15:24;93494.53;;;20.23;82.12
52249;BME280;38541;48.130;8.378;2023-08-21T06:17:51;93495.34;;;20.33;82.08
52249;BME280;38541;48.130;8.378;2023-08-21T06:20:17;93494.63;;;20.41;82.26
52249;BME280;38541;48.130;8.378;2023-08-21T06:22:46;93499.56;;;20.48;82.36
52249;BME280;38541;48.130;8.378;2023-08-21T06:25:12;93492.66;;;20.56;82.57
52249;BME280;38541;48.130;8.378;2023-08-21T06:27:40;93497.28;;;20.64;81.81
52249;BME280;38541;48.130;8.378;2023-08-21T06:30:23;93495.75;;;20.72;81.95
52249;BME280;38541;48.130;8.378;2023-08-21T06:32:51;93497.50;;;20.76;82.07
52249;BME280;38541;48.130;8.378;2023-08-21T06:35:17;93500.25;;;20.85;81.50
52249;BME280;38541;48.130;8.378;2023-08-21T06:37:44;93502.16;;;20.93;81.61
52249;BME280;38541;48.130;8.378;2023-08-21T06:40:11;93509.72;;;21.00;81.41
52249;BME280;38541;48.130;8.378;2023-08-21T06:42:37;93504.72;;;21.07;81.54
52249;BME280;38541;48.130;8.378;2023-08-21T06:45:05;93503.16;;;21.15;81.66
52249;BME280;38541;48.130;8.378;2023-08-21T06:47:32;93499.75;;;21.23;81.38
52249;BME280;38541;48.130;8.378;2023-08-21T06:49:58;93501.63;;;21.32;81.31
52249;BME280;38541;48.130;8.378;2023-08-21T06:52:26;93502.75;;;21.40;80.32
52249;BME280;38541;48.130;8.378;2023-08-21T06:54:53;93495.88;;;21.47;81.08
52249;BME280;38541;48.130;8.378;2023-08-21T06:57:19;93499.19;;;21.53;80.92
52249;BME280;38541;48.130;8.378;2023-08-21T06:59:46;93509.56;;;21.63;80.97
52249;BME280;38541;48.130;8.378;2023-08-21T07:02:12;93507.25;;;21.71;81.68
52249;BME280;38541;48.130;8.378;2023-08-21T07:04:39;93510.72;;;21.80;81.37
52249;BME280;38541;48.130;8.378;2023-08-21T07:07:05;93510.72;;;21.89;81.05
52249;BME280;38541;48.130;8.378;2023-08-21T07:09:32;93512.13;;;21.95;80.50
52249;BME280;38541;48.130;8.378;2023-08-21T07:11:58;93514.19;;;22.07;80.50
52249;BME280;38541;48.130;8.378;2023-08-21T07:14:25;93516.56;;;22.17;80.34
52249;BME280;38541;48.130;8.378;2023-08-21T07:16:51;93506.59;;;22.27;80.06
52249;BME280;38541;48.130;8.378;2023-08-21T07:19:18;93502.50;;;22.38;79.81
52249;BME280;38541;48.130;8.378;2023-08-21T07:21:44;93504.91;;;22.48;78.19
52249;BME280;38541;48.130;8.378;2023-08-21T07:24:11;93511.00;;;22.58;77.75
52249;BME280;38541;48.130;8.378;2023-08-21T07:26:37;93504.06;;;22.65;76.74
52249;BME280;38541;48.130;8.378;2023-08-21T07:29:04;93505.59;;;22.75;76.53
52249;BME280;38541;48.130;8.378;2023-08-21T07:31:31;93510.63;;;22.86;75.96
52249;BME280;38541;48.130;8.378;2023-08-21T07:33:57;93516.75;;;22.95;75.57
52249;BME280;38541;48.130;8.378;2023-08-21T07:36:24;93510.56;;;23.03;74.71
52249;BME280;38541;48.130;8.378;2023-08-21T07:38:50;93511.16;;;23.09;72.83
52249;BME280;38541;48.130;8.378;2023-08-21T07:41:17;93514.91;;;23.17;72.19
52249;BME280;38541;48.130;8.378;2023-08-21T07:43:44;93509.06;;;23.23;71.30
52249;BME280;38541;48.130;8.378;2023-08-21T07:46:12;93505.72;;;23.35;70.77
52249;BME280;38541;48.130;8.378;2023-08-21T07:48:42;93509.47;;;23.43;70.37
52249;BME280;38541;48.130;8.378;2023-08-21T07:51:09;93508.28;;;23.53;69.91
52249;BME280;38541;48.130;8.378;2023-08-21T07:53:36;93513.94;;;23.60;69.68
52249;BME280;38541;48.130;8.378;2023-08-21T07:56:03;93511.53;;;23.68;69.15
52249;BME280;38541;48.130;8.378;2023-08-21T07:58:30;93514.47;;;23.75;69.38
52249;BME280;38541;48.130;8.378;2023-08-21T08:00:58;93515.06;;;23.80;68.34
52249;BME280;38541;48.130;8.378;2023-08-21T08:03:24;93511.72;;;23.84;67.79
52249;BME280;38541;48.130;8.378;2023-08-21T08:05:51;93515.47;;;23.91;67.94
52249;BME280;38541;48.130;8.378;2023-08-21T08:08:21;93519.53;;;23.98;67.89
52249;BME280;38541;48.130;8.378;2023-08-21T08:10:48;93517.31;;;24.00;66.58
52249;BME280;38541;48.130;8.378;2023-08-21T08:13:14;93513.78;;;24.08;66.04
52249;BME280;38541;48.130;8.378;2023-08-21T08:15:41;93513.28;;;24.15;66.34
52249;BME280;38541;48.130;8.378;2023-08-21T08:18:11;93519.69;;;24.22;66.76
52249;BME280;38541;48.130;8.378;2023-08-21T08:20:39;93519.81;;;24.26;66.91
52249;BME280;38541;48.130;8.378;2023-08-21T08:23:05;93520.38;;;24.32;66.66
52249;BME280;38541;48.130;8.378;2023-08-21T08:25:32;93523.34;;;24.39;66.24
52249;BME280;38541;48.130;8.378;2023-08-21T08:27:59;93520.44;;;24.44;65.98
52249;BME280;38541;48.130;8.378;2023-08-21T08:30:26;93519.44;;;24.49;65.58
52249;BME280;38541;48.130;8.378;2023-08-21T08:32:52;93517.81;;;24.57;65.85
52249;BME280;38541;48.130;8.378;2023-08-21T08:35:19;93523.41;;;24.64;65.00
52249;BME280;38541;48.130;8.378;2023-08-21T08:37:46;93520.50;;;24.69;64.57
52249;BME280;38541;48.130;8.378;2023-08-21T08:40:12;93520.78;;;24.76;64.67
52249;BME280;38541;48.130;8.378;2023-08-21T08:42:39;93517.09;;;24.81;63.95
52249;BME280;38541;48.130;8.378;2023-08-21T08:45:06;93509.94;;;24.85;64.45
52249;BME280;38541;48.130;8.378;2023-08-21T08:47:34;93514.75;;;24.92;64.57
52249;BME280;38541;48.130;8.378;2023-08-21T08:50:05;93512.75;;;25.01;64.79
52249;BME280;38541;48.130;8.378;2023-08-21T08:52:35;93515.44;;;25.01;64.23
52249;BME280;38541;48.130;8.378;2023-08-21T08:55:03;93513.66;;;25.05;62.61
52249;BME280;38541;48.130;8.378;2023-08-21T08:57:30;93514.81;;;25.17;63.71
52249;BME280;38541;48.130;8.378;2023-08-21T08:59:57;93521.06;;;25.21;62.14
52249;BME280;38541;48.130;8.378;2023-08-21T09:02:24;93521.53;;;25.23;62.13
52249;BME280;38541;48.130;8.378;2023-08-21T09:04:53;93518.28;;;25.30;61.95
52249;BME280;38541;48.130;8.378;2023-08-21T09:07:20;93517.28;;;25.34;61.75
52249;BME280;38541;48.130;8.378;2023-08-21T09:09:48;93515.16;;;25.40;62.45
52249;BME280;38541;48.130;8.378;2023-08-21T09:12:17;93513.00;;;25.46;61.37
52249;BME280;38541;48.130;8.378;2023-08-21T09:14:44;93516.28;;;25.52;61.90
52249;BME280;38541;48.130;8.378;2023-08-21T09:17:11;93516.84;;;25.57;61.79
52249;BME280;38541;48.130;8.378;2023-08-21T09:19:38;93514.34;;;25.64;61.83
52249;BME280;38541;48.130;8.378;2023-08-21T09:22:15;93514.16;;;25.70;62.74
52249;BME280;38541;48.130;8.378;2023-08-21T09:25:06;93516.72;;;25.78;61.47
52249;BME280;38541;48.130;8.378;2023-08-21T09:27:34;93512.09;;;25.91;61.51
52249;BME280;38541;48.130;8.378;2023-08-21T09:30:06;93512.97;;;25.96;61.93
52249;BME280;38541;48.130;8.378;2023-08-21T09:32:57;93508.22;;;26.05;61.45
52249;BME280;38541;48.130;8.378;2023-08-21T09:35:24;93510.75;;;26.14;61.19
52249;BME280;38541;48.130;8.378;2023-08-21T09:37:50;93512.34;;;26.27;59.66
52249;BME280;38541;48.130;8.378;2023-08-21T09:40:22;93512.44;;;26.31;58.49
52249;BME280;38541;48.130;8.378;2023-08-21T09:42:52;93511.41;;;26.35;59.64
52249;BME280;38541;48.130;8.378;2023-08-21T09:45:20;93507.75;;;26.28;58.83
52249;BME280;38541;48.130;8.378;2023-08-21T09:47:47;93512.47;;;26.18;58.99
52249;BME280;38541;48.130;8.378;2023-08-21T09:50:15;93509.88;;;26.10;59.85
52249;BME280;38541;48.130;8.378;2023-08-21T09:52:43;93514.16;;;26.23;60.20
52249;BME280;38541;48.130;8.378;2023-08-21T09:55:12;93511.28;;;26.44;59.22
52249;BME280;38541;48.130;8.378;2023-08-21T09:57:39;93502.09;;;26.61;58.35
52249;BME280;38541;48.130;8.378;2023-08-21T10:00:10;93498.19;;;26.75;58.02
52249;BME280;38541;48.130;8.378;2023-08-21T10:02:43;93507.19;;;26.95;58.84
52249;BME280;38541;48.130;8.378;2023-08-21T10:05:16;93500.25;;;27.10;58.16
52249;BME280;38541;48.130;8.378;2023-08-21T10:07:47;93500.94;;;27.23;58.13
52249;BME280;38541;48.130;8.378;2023-08-21T10:10:17;93491.78;;;27.28;57.02
52249;BME280;38541;48.130;8.378;2023-08-21T10:12:43;93497.78;;;27.37;57.14
52249;BME280;38541;48.130;8.378;2023-08-21T10:15:10;93487.53;;;27.43;55.53
52249;BME280;38541;48.130;8.378;2023-08-21T10:17:38;93487.94;;;27.61;56.59
52249;BME280;38541;48.130;8.378;2023-08-21T10:20:06;93489.09;;;27.80;57.66
52249;BME280;38541;48.130;8.378;2023-08-21T10:22:46;93491.84;;;27.99;53.60
52249;BME280;38541;48.130;8.378;2023-08-21T10:25:30;93489.09;;;28.15;53.80
52249;BME280;38541;48.130;8.378;2023-08-21T10:27:59;93482.63;;;28.40;54.25
52249;BME280;38541;48.130;8.378;2023-08-21T10:30:30;93485.28;;;28.59;54.41
52249;BME280;38541;48.130;8.378;2023-08-21T10:32:58;93479.16;;;28.82;52.79
52249;BME280;38541;48.130;8.378;2023-08-21T10:35:30;93476.03;;;29.03;52.89
52249;BME280;38541;48.130;8.378;2023-08-21T10:38:07;93482.69;;;29.33;52.78
52249;BME280;38541;48.130;8.378;2023-08-21T10:40:35;93488.50;;;29.58;50.83
52249;BME280;38541;48.130;8.378;2023-08-21T10:43:02;93465.69;;;29.86;49.89
52249;BME280;38541;48.130;8.378;2023-08-21T10:45:30;93476.69;;;30.01;49.42
52249;BME280;38541;48.130;8.378;2023-08-21T10:47:58;93478.06;;;29.87;49.15
52249;BME280;38541;48.130;8.378;2023-08-21T10:50:25;93478.50;;;29.63;48.29
52249;BME280;38541;48.130;8.378;2023-08-21T10:52:53;93472.66;;;29.33;50.48
52249;BME280;38541;48.130;8.378;2023-08-21T10:55:20;93478.09;;;29.37;49.19
52249;BME280;38541;48.130;8.378;2023-08-21T10:57:48;93480.06;;;29.64;48.90
52249;BME280;38541;48.130;8.378;2023-08-21T11:00:18;93469.81;;;29.50;49.31
52249;BME280;38541;48.130;8.378;2023-08-21T11:02:48;93468.41;;;29.36;49.80
52249;BME280;38541;48.130;8.378;2023-08-21T11:05:16;93466.34;;;29.26;50.68
52249;BME280;38541;48.130;8.378;2023-08-21T11:07:44;93472.25;;;29.58;49.58
52249;BME280;38541;48.130;8.378;2023-08-21T11:10:13;93474.63;;;29.90;49.54
52249;BME280;38541;48.130;8.378;2023-08-21T11:12:54;93470.25;;;30.09;48.29
52249;BME280;38541;48.130;8.378;2023-08-21T11:15:28;93467.59;;;30.16;47.78
52249;BME280;38541;48.130;8.378;2023-08-21T11:20:27;93465.13;;;29.46;48.29
52249;BME280;38541;48.130;8.378;2023-08-21T11:22:58;93469.72;;;29.19;49.10
52249;BME280;38541;48.130;8.378;2023-08-21T11:25:25;93482.41;;;29.15;49.14
52249;BME280;38541;48.130;8.378;2023-08-21T11:27:53;93465.19;;;29.50;49.10
52249;BME280;38541;48.130;8.378;2023-08-21T11:30:22;93475.19;;;30.03;48.08
52249;BME280;38541;48.130;8.378;2023-08-21T11:33:05;93481.09;;;30.43;47.12
52249;BME280;38541;48.130;8.378;2023-08-21T11:35:31;93479.66;;;30.57;48.18
52249;BME280;38541;48.130;8.378;2023-08-21T11:37:58;93478.81;;;30.49;47.22
52249;BME280;38541;48.130;8.378;2023-08-21T11:40:24;93468.81;;;30.53;46.70
52249;BME280;38541;48.130;8.378;2023-08-21T11:42:51;93470.69;;;30.87;45.87
52249;BME280;38541;48.130;8.378;2023-08-21T11:45:21;93465.13;;;31.17;45.66
52249;BME280;38541;48.130;8.378;2023-08-21T11:47:48;93462.25;;;31.41;45.38
52249;BME280;38541;48.130;8.378;2023-08-21T11:50:14;93461.22;;;31.64;45.69
52249;BME280;38541;48.130;8.378;2023-08-21T11:52:44;93457.50;;;31.90;44.50
52249;BME280;38541;48.130;8.378;2023-08-21T11:55:11;93463.81;;;32.16;44.22
52249;BME280;38541;48.130;8.378;2023-08-21T11:57:48;93464.22;;;32.18;42.33
52249;BME280;38541;48.130;8.378;2023-08-21T12:00:16;93462.88;;;31.79;43.73
52249;BME280;38541;48.130;8.378;2023-08-21T12:02:55;93466.66;;;31.15;43.81
52249;BME280;38541;48.130;8.378;2023-08-21T12:05:22;93458.94;;;30.72;46.10
52249;BME280;38541;48.130;8.378;2023-08-21T12:07:49;93458.50;;;30.70;46.38
52249;BME280;38541;48.130;8.378;2023-08-21T12:10:26;93454.63;;;31.16;45.67
52249;BME280;38541;48.130;8.378;2023-08-21T12:12:52;93453.81;;;31.64;45.46
52249;BME280;38541;48.130;8.378;2023-08-21T12:15:20;93450.16;;;31.35;43.57
52249;BME280;38541;48.130;8.378;2023-08-21T12:17:46;93447.13;;;30.98;45.12
52249;BME280;38541;48.130;8.378;2023-08-21T12:20:13;93441.81;;;30.64;46.05
52249;BME280;38541;48.130;8.378;2023-08-21T12:22:40;93445.53;;;30.52;46.25
52249;BME280;38541;48.130;8.378;2023-08-21T12:25:07;93454.84;;;30.55;46.42
52249;BME280;38541;48.130;8.378;2023-08-21T12:27:34;93456.59;;;30.70;46.37
52249;BME280;38541;48.130;8.378;2023-08-21T12:30:03;93452.28;;;31.11;47.07
52249;BME280;38541;48.130;8.378;2023-08-21T12:32:29;93447.38;;;31.83;44.87
52249;BME280;38541;48.130;8.378;2023-08-21T12:34:56;93443.59;;;32.06;44.50
52249;BME280;38541;48.130;8.378;2023-08-21T12:37:22;93439.00;;;32.25;43.56
52249;BME280;38541;48.130;8.378;2023-08-21T12:39:49;93443.25;;;32.19;41.65
52249;BME280;38541;48.130;8.378;2023-08-21T12:42:15;93433.59;;;32.36;42.99
52249;BME280;38541;48.130;8.378;2023-08-21T12:44:42;93442.19;;;32.41;42.67
52249;BME280;38541;48.130;8.378;2023-08-21T12:47:09;93447.66;;;32.56;43.25
52249;BME280;38541;48.130;8.378;2023-08-21T12:49:35;93433.75;;;32.90;41.75
52249;BME280;38541;48.130;8.378;2023-08-21T12:52:02;93438.41;;;32.93;40.72
52249;BME280;38541;48.130;8.378;2023-08-21T12:54:32;93429.44;;;33.40;39.55
52249;BME280;38541;48.130;8.378;2023-08-21T12:56:59;93425.09;;;33.75;39.91
52249;BME280;38541;48.130;8.378;2023-08-21T12:59:25;93430.13;;;34.02;39.77
52249;BME280;38541;48.130;8.378;2023-08-21T13:01:52;93428.06;;;34.24;40.16
52249;BME280;38541;48.130;8.378;2023-08-21T13:04:18;93420.41;;;33.79;38.82
52249;BME280;38541;48.130;8.378;2023-08-21T13:06:45;93429.03;;;33.67;38.97
52249;BME280;38541;48.130;8.378;2023-08-21T13:09:11;93415.81;;;33.51;40.14